createdAt,value
2018-03-17T00:01:35.778Z,4.73
2018-03-17T00:04:04.272Z,5.07
2018-03-17T00:06:33.336Z,4.83
2018-03-17T00:09:03.237Z,4.30
2018-03-17T00:11:31.807Z,4.70
2018-03-17T00:14:00.836Z,4.47
2018-03-17T00:16:29.206Z,4.63
2018-03-17T00:18:58.680Z,5.70
2018-03-17T00:21:29.216Z,6.10
2018-03-17T00:23:57.631Z,4.87
2018-03-17T00:26:25.972Z,6.10
2018-03-17T00:28:55.340Z,5.53
2018-03-17T00:31:23.862Z,5.80
2018-03-17T00:33:52.205Z,5.80
2018-03-17T00:36:23.090Z,5.80
2018-03-17T00:38:51.723Z,6.27
2018-03-17T00:41:20.008Z,6.50
2018-03-17T00:43:50.024Z,7.70
2018-03-17T00:46:18.429Z,8.37
2018-03-17T00:48:48.554Z,8.40
2018-03-17T00:51:17.208Z,8.97
2018-03-17T00:53:45.888Z,12.40
2018-03-17T00:56:14.245Z,12.30
2018-03-17T00:58:42.535Z,10.63
2018-03-17T01:01:10.914Z,9.33
2018-03-17T01:03:39.213Z,7.53
2018-03-17T01:06:07.516Z,7.50
2018-03-17T01:08:36.375Z,7.50
2018-03-17T01:11:09.269Z,8.20
2018-03-17T01:13:39.553Z,8.47
2018-03-17T01:16:10.185Z,9.37
2018-03-17T01:18:43.370Z,9.23
2018-03-17T01:21:11.782Z,7.67
2018-03-17T01:23:42.744Z,7.47
2018-03-17T01:26:12.042Z,7.40
2018-03-17T01:28:42.092Z,7.10
2018-03-17T01:31:10.483Z,7.10
2018-03-17T01:33:38.744Z,7.80
2018-03-17T01:36:07.050Z,7.10
2018-03-17T01:38:35.382Z,7.50
2018-03-17T01:41:04.598Z,6.40
2018-03-17T01:43:33.040Z,6.90
2018-03-17T01:46:01.626Z,6.63
2018-03-17T01:48:29.966Z,5.57
2018-03-17T01:50:58.231Z,5.93
2018-03-17T01:53:26.648Z,5.60
2018-03-17T01:55:55.670Z,5.80
2018-03-17T01:58:24.004Z,6.80
2018-03-17T02:00:52.276Z,7.00
2018-03-17T02:03:20.587Z,6.90
2018-03-17T02:05:48.898Z,7.33
2018-03-17T02:08:17.428Z,7.33
2018-03-17T02:10:45.780Z,7.13
2018-03-17T02:13:14.061Z,6.37
2018-03-17T02:15:42.352Z,6.80
2018-03-17T02:18:10.918Z,6.50
2018-03-17T02:20:39.236Z,6.80
2018-03-17T02:23:07.610Z,7.83
2018-03-17T02:25:35.886Z,8.20
2018-03-17T02:28:04.225Z,8.07
2018-03-17T02:30:33.522Z,8.33
2018-03-17T02:33:01.933Z,7.30
2018-03-17T02:35:30.338Z,6.40
2018-03-17T02:37:58.632Z,7.30
2018-03-17T02:40:26.883Z,7.50
2018-03-17T02:42:59.872Z,7.37
2018-03-17T02:45:28.189Z,6.60
2018-03-17T02:47:56.727Z,6.97
2018-03-17T02:50:25.180Z,6.83
2018-03-17T02:52:53.551Z,8.00
2018-03-17T02:55:23.584Z,7.83
2018-03-17T02:57:53.589Z,7.40
2018-03-17T03:00:21.919Z,6.77
2018-03-17T03:02:50.209Z,8.23
2018-03-17T03:05:18.487Z,7.77
2018-03-17T03:07:46.823Z,7.10
2018-03-17T03:10:15.135Z,7.60
2018-03-17T03:12:45.292Z,8.10
2018-03-17T03:15:14.873Z,7.90
2018-03-17T03:17:43.151Z,8.40
2018-03-17T03:20:11.430Z,7.80
2018-03-17T03:22:41.501Z,8.83
2018-03-17T03:25:09.935Z,8.40
2018-03-17T03:27:38.229Z,8.50
2018-03-17T03:30:06.540Z,8.80
2018-03-17T03:32:34.817Z,8.03
2018-03-17T03:35:03.119Z,8.07
2018-03-17T03:37:31.497Z,8.73
2018-03-17T03:40:02.234Z,8.83
2018-03-17T03:42:30.751Z,8.40
2018-03-17T03:44:59.225Z,7.87
2018-03-17T03:47:30.201Z,8.00
2018-03-17T03:49:58.792Z,8.67
2018-03-17T03:52:27.198Z,9.00
2018-03-17T03:54:58.135Z,8.57
2018-03-17T03:57:26.577Z,8.80
2018-03-17T03:59:55.562Z,8.43
2018-03-17T04:02:23.849Z,9.20
2018-03-17T04:04:52.139Z,9.33
2018-03-17T04:07:23.171Z,10.00
2018-03-17T04:09:51.619Z,9.30
2018-03-17T04:12:19.941Z,10.43
2018-03-17T04:14:48.223Z,9.23
2018-03-17T04:17:16.497Z,10.90
2018-03-17T04:19:44.875Z,9.90
2018-03-17T04:22:14.202Z,9.50
2018-03-17T04:24:42.555Z,8.57
2018-03-17T04:27:10.843Z,9.30
2018-03-17T04:29:39.124Z,9.50
2018-03-17T04:32:09.073Z,9.57
2018-03-17T04:34:40.013Z,8.87
2018-03-17T04:37:08.423Z,9.30
2018-03-17T04:39:36.807Z,8.63
2018-03-17T04:42:05.125Z,9.20
2018-03-17T04:44:33.391Z,9.30
2018-03-17T04:47:01.825Z,8.77
2018-03-17T04:49:30.123Z,9.43
2018-03-17T04:51:58.451Z,9.73
2018-03-17T04:54:26.781Z,9.67
2018-03-17T04:56:55.314Z,10.20
2018-03-17T04:59:23.659Z,9.60
2018-03-17T05:01:52.036Z,10.03
2018-03-17T05:04:20.434Z,10.80
2018-03-17T05:06:50.993Z,9.70
2018-03-17T05:09:20.917Z,9.70
2018-03-17T05:11:51.004Z,10.10
2018-03-17T05:14:19.339Z,10.63
2018-03-17T05:16:47.654Z,10.77
2018-03-17T05:19:16.083Z,11.10
2018-03-17T05:21:44.415Z,10.70
2018-03-17T05:24:12.783Z,10.37
2018-03-17T05:26:41.069Z,10.23
2018-03-17T05:29:09.412Z,10.40
2018-03-17T05:31:37.757Z,10.30
2018-03-17T05:34:07.637Z,11.23
2018-03-17T05:36:36.097Z,11.00
2018-03-17T05:39:04.562Z,10.37
2018-03-17T05:41:32.873Z,10.23
2018-03-17T05:44:01.393Z,9.07
2018-03-17T05:46:29.745Z,8.90
2018-03-17T05:48:58.067Z,9.30
2018-03-17T05:51:29.057Z,9.40
2018-03-17T05:53:57.633Z,12.90
2018-03-17T05:56:26.675Z,10.10
2018-03-17T05:58:54.982Z,10.43
2018-03-17T06:01:23.344Z,10.00
2018-03-17T06:03:51.697Z,9.53
2018-03-17T06:06:22.191Z,9.10
2018-03-17T06:08:51.570Z,10.83
2018-03-17T06:11:19.850Z,9.90
2018-03-17T06:13:48.179Z,9.60
2018-03-17T06:16:16.534Z,12.20
2018-03-17T06:18:47.000Z,11.20
2018-03-17T06:21:16.547Z,9.17
2018-03-17T06:23:44.876Z,10.37
2018-03-17T06:26:13.236Z,9.83
2018-03-17T06:28:44.130Z,10.50
2018-03-17T06:31:12.481Z,10.70
2018-03-17T06:33:40.861Z,10.83
2018-03-17T06:36:11.460Z,9.53
2018-03-17T06:38:40.035Z,10.90
2018-03-17T06:41:08.429Z,11.00
2018-03-17T06:43:36.911Z,10.87
2018-03-17T06:46:05.260Z,9.57
2018-03-17T06:48:37.139Z,10.27
2018-03-17T06:51:05.473Z,11.20
2018-03-17T06:53:35.758Z,11.47
2018-03-17T06:56:07.829Z,9.90
2018-03-17T06:58:38.517Z,9.97
2018-03-17T07:01:09.634Z,10.30
2018-03-17T07:03:38.128Z,10.57
2018-03-17T07:06:11.756Z,9.43
2018-03-17T07:08:41.714Z,10.37
2018-03-17T07:11:10.046Z,10.10
2018-03-17T07:13:38.416Z,9.70
2018-03-17T07:16:08.593Z,10.30
2018-03-17T07:18:36.954Z,9.87
2018-03-17T07:21:05.370Z,10.73
2018-03-17T07:23:35.013Z,10.13
2018-03-17T07:26:05.760Z,10.20
2018-03-17T07:28:36.248Z,11.27
2018-03-17T07:31:04.898Z,10.47
2018-03-17T07:33:33.181Z,10.60
2018-03-17T07:36:01.506Z,12.37
2018-03-17T07:38:29.890Z,12.03
2018-03-17T07:40:58.292Z,12.57
2018-03-17T07:43:26.652Z,11.27
2018-03-17T07:45:55.047Z,11.80
2018-03-17T07:48:23.403Z,12.20
2018-03-17T07:50:53.546Z,11.50
2018-03-17T07:53:21.958Z,11.13
2018-03-17T07:55:54.272Z,13.20
2018-03-17T07:58:25.561Z,11.20
2018-03-17T08:00:55.533Z,12.50
2018-03-17T08:03:24.668Z,12.27
2018-03-17T08:05:54.723Z,11.80
2018-03-17T08:08:23.269Z,11.93
2018-03-17T08:10:51.677Z,12.10
2018-03-17T08:13:20.034Z,14.63
2018-03-17T08:15:48.442Z,14.57
2018-03-17T08:18:16.792Z,14.30
2018-03-17T08:20:45.298Z,14.90
2018-03-17T08:23:13.771Z,14.37
2018-03-17T08:25:42.164Z,16.60
2018-03-17T08:28:10.472Z,17.17
2018-03-17T08:30:38.846Z,15.70
2018-03-17T08:33:07.227Z,15.70
2018-03-17T08:35:35.608Z,16.60
2018-03-17T08:38:04.188Z,16.07
2018-03-17T08:40:32.947Z,15.70
2018-03-17T08:43:05.899Z,17.07
2018-03-17T08:45:34.239Z,17.40
2018-03-17T08:48:02.630Z,16.90
2018-03-17T08:50:31.118Z,20.90
2018-03-17T08:53:01.267Z,16.97
2018-03-17T08:55:32.076Z,16.23
2018-03-17T08:58:00.558Z,17.37
2018-03-17T09:00:31.449Z,17.40
2018-03-17T09:02:59.866Z,17.03
2018-03-17T09:05:29.839Z,17.80
2018-03-17T09:27:18.605Z,17.70
2018-03-17T09:29:47.008Z,19.30
2018-03-17T09:32:15.540Z,21.00
2018-03-17T09:34:43.955Z,19.73
2018-03-17T09:37:12.343Z,22.33
2018-03-17T09:39:40.751Z,17.93
2018-03-17T09:42:11.814Z,17.57
2018-03-17T09:44:41.125Z,17.17
2018-03-17T09:47:11.097Z,15.70
2018-03-17T09:49:39.526Z,19.90
2018-03-17T09:52:07.907Z,17.23
2018-03-17T09:54:36.289Z,16.77
2018-03-17T09:57:04.633Z,15.93
2018-03-17T09:59:33.009Z,15.30
2018-03-17T10:02:01.382Z,16.40
2018-03-17T10:04:29.881Z,17.10
2018-03-17T10:06:58.279Z,14.73
2018-03-17T10:09:32.393Z,14.67
2018-03-17T10:25:00.910Z,15.93
2018-03-17T10:27:29.318Z,13.70
2018-03-17T10:29:57.609Z,14.60
2018-03-17T10:32:27.782Z,12.50
2018-03-17T10:34:56.143Z,12.80
2018-03-17T10:37:24.487Z,11.80
2018-03-17T10:39:53.705Z,11.90
2018-03-17T10:42:22.307Z,13.53
2018-03-17T10:44:51.363Z,12.77
2018-03-17T10:47:21.435Z,13.20
2018-03-17T10:49:50.590Z,13.47
2018-03-17T10:52:20.557Z,11.97
2018-03-17T10:54:49.904Z,12.67
2018-03-17T10:57:18.301Z,12.90
2018-03-17T10:59:46.660Z,12.07
2018-03-17T11:02:15.759Z,11.90
2018-03-17T11:04:46.744Z,11.60
2018-03-17T11:07:15.118Z,14.10
2018-03-17T11:09:45.213Z,12.10
2018-03-17T11:12:15.204Z,14.30
2018-03-17T11:14:43.594Z,11.30
2018-03-17T11:17:11.951Z,12.30
2018-03-17T11:19:42.849Z,12.50
2018-03-17T11:22:11.222Z,12.57
2018-03-17T11:24:39.555Z,14.63
2018-03-17T11:27:07.903Z,12.90
2018-03-17T11:29:36.274Z,12.10
2018-03-17T11:32:05.750Z,14.20
2018-03-17T11:34:34.271Z,11.60
2018-03-17T11:37:02.599Z,12.17
2018-03-17T11:39:31.761Z,11.83
2018-03-17T11:42:01.757Z,11.93
2018-03-17T11:44:30.153Z,11.77
2018-03-17T11:47:00.207Z,13.53
2018-03-17T11:49:28.617Z,12.93
2018-03-17T11:51:56.941Z,13.03
2018-03-17T11:54:25.553Z,14.60
2018-03-17T11:56:54.280Z,12.03
2018-03-17T11:59:22.643Z,12.30
2018-03-17T12:01:51.084Z,11.30
2018-03-17T12:04:19.426Z,12.70
2018-03-17T12:06:47.901Z,14.10
2018-03-17T12:09:16.206Z,14.90
2018-03-17T12:11:45.340Z,12.67
2018-03-17T12:14:15.307Z,11.07
2018-03-17T12:16:43.639Z,12.00
2018-03-17T12:19:11.990Z,11.93
2018-03-17T12:21:42.144Z,11.83
2018-03-17T12:24:10.679Z,12.20
2018-03-17T12:26:41.031Z,11.50
2018-03-17T12:29:13.244Z,10.70
2018-03-17T12:31:43.812Z,11.27
2018-03-17T12:34:14.665Z,11.73
2018-03-17T12:36:44.835Z,10.37
2018-03-17T12:39:13.249Z,11.97
2018-03-17T12:41:41.750Z,11.77
2018-03-17T12:44:10.202Z,12.03
2018-03-17T12:46:38.634Z,12.73
2018-03-17T12:49:07.014Z,14.00
2018-03-17T12:51:37.226Z,12.40
2018-03-17T12:54:05.636Z,12.57
2018-03-17T12:56:35.016Z,13.00
2018-03-17T12:59:03.341Z,11.67
2018-03-17T13:01:31.970Z,12.67
2018-03-17T13:04:00.500Z,12.50
2018-03-17T13:06:28.792Z,12.70
2018-03-17T13:08:57.171Z,11.57
2018-03-17T13:11:26.245Z,12.57
2018-03-17T13:13:55.538Z,13.80
2018-03-17T13:16:24.132Z,13.00
2018-03-17T13:18:53.238Z,13.10
2018-03-17T13:21:22.295Z,13.13
2018-03-17T13:23:50.645Z,13.03
2018-03-17T13:26:20.608Z,14.30
2018-03-17T13:28:49.091Z,13.50
2018-03-17T13:31:17.432Z,12.43
2018-03-17T13:33:46.027Z,11.80
2018-03-17T13:36:26.122Z,13.13
2018-03-17T13:38:54.543Z,13.70
2018-03-17T13:41:23.015Z,12.00
2018-03-17T13:43:51.715Z,12.20
2018-03-17T13:46:20.072Z,11.40
2018-03-17T13:48:50.030Z,11.73
2018-03-17T13:51:18.455Z,12.53
2018-03-17T13:53:48.518Z,13.07
2018-03-17T13:56:16.986Z,11.47
2018-03-17T13:58:47.137Z,12.70
2018-03-17T14:03:49.669Z,14.40
2018-03-17T14:06:18.049Z,10.53
2018-03-17T14:08:46.441Z,12.47
2018-03-17T14:11:14.808Z,11.47
2018-03-17T14:13:43.156Z,12.13
2018-03-17T14:16:12.299Z,10.20
2018-03-17T14:18:42.538Z,12.60
2018-03-17T14:21:11.891Z,12.07
2018-03-17T14:23:40.222Z,12.13
2018-03-17T14:26:08.523Z,12.50
2018-03-17T14:28:39.033Z,13.00
2018-03-17T14:31:07.790Z,13.47
2018-03-17T14:33:38.278Z,11.80
2018-03-17T14:36:07.323Z,13.67
2018-03-17T14:38:38.739Z,12.80
2018-03-17T14:41:07.175Z,12.13
2018-03-17T14:43:35.480Z,12.77
2018-03-17T14:46:03.994Z,12.47
2018-03-17T14:48:32.476Z,12.10
2018-03-17T14:51:00.925Z,11.93
2018-03-17T14:53:29.398Z,11.57
2018-03-17T14:55:57.714Z,12.13
2018-03-17T14:58:26.790Z,11.63
2018-03-17T15:00:55.157Z,11.53
2018-03-17T15:03:25.206Z,12.00
2018-03-17T15:05:53.581Z,12.60
2018-03-17T15:08:24.218Z,11.80
2018-03-17T15:10:52.649Z,12.00
2018-03-17T15:13:21.202Z,12.27
2018-03-17T15:15:49.609Z,13.50
2018-03-17T15:18:19.023Z,12.67
2018-03-17T15:20:50.002Z,12.73
2018-03-17T15:23:19.662Z,13.60
2018-03-17T15:25:48.158Z,11.47
2018-03-17T15:28:17.293Z,12.93
2018-03-17T15:30:47.613Z,13.80
2018-03-17T15:33:22.044Z,12.33
2018-03-17T15:35:50.604Z,12.03
2018-03-17T15:38:18.925Z,12.30
2018-03-17T15:40:48.972Z,13.20
2018-03-17T15:43:18.554Z,12.67
2018-03-17T15:45:46.856Z,13.27
2018-03-17T15:48:15.184Z,12.23
2018-03-17T15:50:43.522Z,12.77
2018-03-17T15:53:14.528Z,13.23
2018-03-17T15:55:44.809Z,14.63
2018-03-17T15:58:14.057Z,15.43
2018-03-17T16:00:42.472Z,12.80
2018-03-17T16:03:10.802Z,13.43
2018-03-17T16:05:39.134Z,10.73
2018-03-17T16:08:10.240Z,13.17
2018-03-17T16:10:38.650Z,13.23
2018-03-17T16:13:07.080Z,13.20
2018-03-17T16:15:35.402Z,12.23
2018-03-17T16:18:04.818Z,12.30
2018-03-17T16:20:34.770Z,12.40
2018-03-17T16:23:03.186Z,11.83
2018-03-17T16:25:33.280Z,13.10
2018-03-17T16:28:01.622Z,10.77
2018-03-17T16:30:29.952Z,12.60
2018-03-17T16:32:58.299Z,13.90
2018-03-17T16:35:27.348Z,13.30
2018-03-17T16:37:58.225Z,12.23
2018-03-17T16:40:26.606Z,13.00
2018-03-17T16:42:56.625Z,12.13
2018-03-17T16:45:25.039Z,12.10
2018-03-17T16:47:53.374Z,12.97
2018-03-17T16:50:23.396Z,13.60
2018-03-17T16:52:51.781Z,12.70
2018-03-17T16:55:20.143Z,12.33
2018-03-17T16:57:48.488Z,13.90
2018-03-17T17:00:19.483Z,12.73
2018-03-17T17:02:49.285Z,12.27
2018-03-17T17:05:17.677Z,15.10
2018-03-17T17:07:46.159Z,12.90
2018-03-17T17:10:16.250Z,13.07
2018-03-17T17:12:45.062Z,12.70
2018-03-17T17:15:13.379Z,12.30
2018-03-17T17:17:41.709Z,11.73
2018-03-17T17:20:10.008Z,11.70
2018-03-17T17:22:38.439Z,12.23
2018-03-17T17:25:06.810Z,12.07
2018-03-17T17:27:35.326Z,12.50
2018-03-17T17:30:03.942Z,11.00
2018-03-17T17:32:33.864Z,12.30
2018-03-17T17:35:02.275Z,13.13
2018-03-17T17:37:30.803Z,10.07
2018-03-17T17:39:59.147Z,12.07
2018-03-17T17:42:29.515Z,11.83
2018-03-17T17:44:59.608Z,12.80
2018-03-17T17:47:27.992Z,12.60
2018-03-17T17:49:56.346Z,12.80
2018-03-17T17:52:24.955Z,12.10
2018-03-17T17:54:53.300Z,12.20
2018-03-17T17:57:21.644Z,12.07
2018-03-17T17:59:50.848Z,11.33
2018-03-17T18:02:19.172Z,12.40
2018-03-17T18:04:47.535Z,13.40
2018-03-17T18:07:15.911Z,11.57
2018-03-17T18:09:45.887Z,11.80
2018-03-17T18:12:14.303Z,12.87
2018-03-17T18:14:43.396Z,12.50
2018-03-17T18:17:12.466Z,12.03
2018-03-17T18:19:41.134Z,12.80
2018-03-17T18:22:09.488Z,13.70
2018-03-17T18:24:38.078Z,12.77
2018-03-17T18:27:08.989Z,12.60
2018-03-17T18:29:39.963Z,13.07
2018-03-17T18:32:09.158Z,12.93
2018-03-17T18:34:38.218Z,12.17
2018-03-17T18:37:06.577Z,15.13
2018-03-17T18:39:37.007Z,16.00
2018-03-17T18:42:05.351Z,14.60
2018-03-17T18:44:37.676Z,14.40
2018-03-17T18:47:08.865Z,16.20
2018-03-17T18:49:37.300Z,14.10
2018-03-17T18:52:06.597Z,12.37
2018-03-17T18:54:35.042Z,13.33
2018-03-17T18:57:05.126Z,12.70
2018-03-17T18:59:36.133Z,12.93
2018-03-17T19:02:04.494Z,13.27
2018-03-17T19:04:35.623Z,13.50
2018-03-17T19:07:04.682Z,12.30
2018-03-17T19:09:34.776Z,13.77
2018-03-17T19:12:04.993Z,14.73
2018-03-17T19:14:33.414Z,12.70
2018-03-17T19:17:01.752Z,10.27
2018-03-17T19:19:32.672Z,12.53
2018-03-17T19:22:03.345Z,11.20
2018-03-17T19:24:54.001Z,12.00
2018-03-17T20:06:48.071Z,10.90
2018-03-17T20:09:16.439Z,12.27
2018-03-17T20:11:44.904Z,11.27
2018-03-17T20:14:14.483Z,10.40
2018-03-17T20:16:44.714Z,11.83
2018-03-17T20:19:17.147Z,10.00
2018-03-17T20:21:45.684Z,11.07
2018-03-17T20:24:14.948Z,9.73
2018-03-17T20:26:45.910Z,9.83
2018-03-17T20:29:14.572Z,10.23
2018-03-17T20:34:18.076Z,9.77
2018-03-17T20:36:48.597Z,10.30
2018-03-17T20:39:17.358Z,12.50
2018-03-17T20:41:45.752Z,11.37
2018-03-17T20:44:14.291Z,11.20
2018-03-17T20:46:42.660Z,10.07
2018-03-17T20:49:11.010Z,10.47
2018-03-17T20:51:40.926Z,10.77
2018-03-17T20:54:10.041Z,9.77
2018-03-17T20:56:38.429Z,12.13
2018-03-17T20:59:06.918Z,10.97
2018-03-17T21:01:35.445Z,10.70
2018-03-17T21:04:04.749Z,10.93
2018-03-17T21:06:33.098Z,11.93
2018-03-17T21:09:01.430Z,13.10
2018-03-17T21:11:29.993Z,11.73
2018-03-17T21:13:58.334Z,12.40
2018-03-17T21:16:26.676Z,11.90
2018-03-17T21:18:56.871Z,11.30
2018-03-17T21:21:26.999Z,11.97
2018-03-17T21:23:56.135Z,13.70
2018-03-17T21:26:24.530Z,10.97
2018-03-17T21:28:52.887Z,11.77
2018-03-17T21:31:21.968Z,11.77
2018-03-17T21:33:50.340Z,12.80
2018-03-17T21:36:18.698Z,12.67
2018-03-17T21:38:47.068Z,12.47
2018-03-17T21:41:17.988Z,10.63
2018-03-17T21:43:46.485Z,11.00
2018-03-17T21:46:14.869Z,10.27
2018-03-17T21:48:44.797Z,10.50
2018-03-17T21:51:13.234Z,11.03
2018-03-17T21:53:41.608Z,10.57
2018-03-17T21:56:10.702Z,10.07
2018-03-17T21:58:40.784Z,13.03
2018-03-17T22:01:10.962Z,10.20
2018-03-17T22:03:39.287Z,13.50
2018-03-17T22:06:08.473Z,14.60
2018-03-17T22:08:36.847Z,13.70
2018-03-17T22:11:05.132Z,11.20
2018-03-17T22:13:36.473Z,8.40
2018-03-17T22:16:04.799Z,12.80
2018-03-17T22:18:34.056Z,10.80
2018-03-17T22:21:03.132Z,11.00
2018-03-17T22:23:33.197Z,11.20
2018-03-17T22:26:01.553Z,12.67
2018-03-17T22:28:30.653Z,10.83
2018-03-17T22:30:58.994Z,10.57
2018-03-17T22:33:28.099Z,11.60
2018-03-17T22:35:58.039Z,11.53
2018-03-17T22:38:26.457Z,9.47
2018-03-17T22:40:56.390Z,8.90
2018-03-17T22:43:24.893Z,5.70
2018-03-17T22:45:53.245Z,11.03
2018-03-17T22:48:21.696Z,11.97
2018-03-17T22:50:50.096Z,11.93
2018-03-17T22:53:18.466Z,11.77
2018-03-17T22:55:47.004Z,10.57
2018-03-17T22:58:17.091Z,11.10
2018-03-17T23:00:48.090Z,9.00
2018-03-17T23:03:18.208Z,9.00
2018-03-17T23:05:46.537Z,10.67
2018-03-17T23:08:14.915Z,10.67
2018-03-17T23:10:44.608Z,12.10
2018-03-17T23:13:12.924Z,8.93
2018-03-17T23:15:43.044Z,12.23
2018-03-17T23:18:13.044Z,5.17
2018-03-17T23:20:43.127Z,10.43
2018-03-17T23:23:11.628Z,10.70
2018-03-17T23:25:39.932Z,11.93
2018-03-17T23:30:42.832Z,10.20
2018-03-17T23:33:11.194Z,12.60
2018-03-17T23:35:39.564Z,12.30
2018-03-17T23:38:08.664Z,10.70
2018-03-17T23:40:37.048Z,11.07
2018-03-17T23:43:05.428Z,10.47
2018-03-17T23:45:33.800Z,10.93
2018-03-17T23:48:02.100Z,12.60
2018-03-17T23:50:31.186Z,10.10
2018-03-17T23:52:59.486Z,11.80
2018-03-17T23:55:27.886Z,11.63
2018-03-17T23:57:58.964Z,10.73
